Time,TemperatureF,DewpointF,PressureIn,WindDirection,WindDirectionDegrees,WindSpeedMPH,WindSpeedGustMPH,Humidity,HourlyPrecipIn,Conditions,Clouds,dailyrainin,SolarRadiationWatts/m^2,SoftwareType,DateUTC
2013-08-29 00:00:00,72.0,69.0,-100.00,NNW,337,4.0,-999.0,90,-99.99,,,-99.99,0.000000,,2013-08-29 04:00:00,
2013-08-29 00:46:00,72.0,69.0,-100.00,NNW,337,4.0,-999.0,90,-99.99,,,-99.99,0.000000,,2013-08-29 04:46:00,
2013-08-29 00:54:00,72.0,69.0,-100.00,NNW,337,4.0,-999.0,90,-99.99,,,-99.99,0.000000,,2013-08-29 04:54:00,
2013-08-29 01:00:00,71.0,68.0,-100.00,SE,135,1.0,-999.0,91,-99.99,,,-99.99,0.000000,,2013-08-29 05:00:00,
2013-08-29 01:42:00,71.0,68.0,-100.00,SE,135,1.0,-999.0,91,-99.99,,,-99.99,0.000000,,2013-08-29 05:42:00,
2013-08-29 01:52:00,71.0,68.0,-100.00,SE,135,1.0,-999.0,91,-99.99,,,-99.99,0.000000,,2013-08-29 05:52:00,
2013-08-29 02:00:00,69.0,67.0,-100.00,SW,225,1.0,-999.0,93,-99.99,,,-99.99,0.000000,,2013-08-29 06:00:00,
2013-08-29 02:43:00,69.0,67.0,-100.00,SW,225,1.0,-999.0,93,-99.99,,,-99.99,0.000000,,2013-08-29 06:43:00,
2013-08-29 02:52:00,69.0,67.0,-100.00,SW,225,1.0,-999.0,93,-99.99,,,-99.99,0.000000,,2013-08-29 06:52:00,
2013-08-29 03:00:00,70.0,67.0,-100.00,East,90,2.0,-999.0,91,-99.99,,,-99.99,0.000000,,2013-08-29 07:00:00,
2013-08-29 03:42:00,70.0,67.0,-100.00,East,90,2.0,-999.0,91,-99.99,,,-99.99,0.000000,,2013-08-29 07:42:00,
2013-08-29 03:53:00,70.0,67.0,-100.00,East,90,2.0,-999.0,91,-99.99,,,-99.99,0.000000,,2013-08-29 07:53:00,
2013-08-29 04:00:00,70.0,66.0,-100.00,East,90,1.0,-999.0,87,-99.99,,,-99.99,0.000000,,2013-08-29 08:00:00,
2013-08-29 04:42:00,70.0,66.0,-100.00,East,90,1.0,-999.0,87,-99.99,,,-99.99,0.000000,,2013-08-29 08:42:00,
2013-08-29 04:52:00,70.0,66.0,-100.00,East,90,1.0,-999.0,87,-99.99,,,-99.99,0.000000,,2013-08-29 08:52:00,
2013-08-29 05:00:00,69.0,65.0,-100.00,ESE,112,1.0,-999.0,85,-99.99,,,-99.99,0.000000,,2013-08-29 09:00:00,
2013-08-29 05:43:00,69.0,65.0,-100.00,ESE,112,1.0,-999.0,85,-99.99,,,-99.99,0.000000,,2013-08-29 09:43:00,
2013-08-29 05:55:00,69.0,65.0,-100.00,ESE,112,1.0,-999.0,85,-99.99,,,-99.99,0.000000,,2013-08-29 09:55:00,
2013-08-29 06:00:00,66.0,63.0,-100.00,SSW,202,1.0,-999.0,91,-99.99,,,-99.99,0.000000,,2013-08-29 10:00:00,
2013-08-29 06:43:00,66.0,63.0,-100.00,SSW,202,1.0,-999.0,91,-99.99,,,-99.99,0.000000,,2013-08-29 10:43:00,
2013-08-29 06:53:00,66.0,63.0,-100.00,SSW,202,1.0,-999.0,91,-99.99,,,-99.99,0.000000,,2013-08-29 10:53:00,
2013-08-29 07:00:00,66.0,64.0,-100.00,ENE,67,1.0,-999.0,92,-99.99,,,-99.99,0.000000,,2013-08-29 11:00:00,
2013-08-29 07:42:00,66.0,64.0,-100.00,ENE,67,1.0,-999.0,92,-99.99,,,-99.99,0.000000,,2013-08-29 11:42:00,
2013-08-29 07:52:00,66.0,64.0,-100.00,ENE,67,1.0,-999.0,92,-99.99,,,-99.99,0.000000,,2013-08-29 11:52:00,
2013-08-29 08:00:00,68.0,64.0,-100.00,ENE,67,2.0,-999.0,89,-99.99,,,-99.99,41.759998,,2013-08-29 12:00:00,
2013-08-29 08:42:00,68.0,64.0,-100.00,ENE,67,2.0,-999.0,89,-99.99,,,-99.99,41.759998,,2013-08-29 12:42:00,
2013-08-29 08:52:00,68.0,64.0,-100.00,ENE,67,2.0,-999.0,89,-99.99,,,-99.99,41.759998,,2013-08-29 12:52:00,
2013-08-29 09:00:00,70.0,65.0,-100.00,SE,135,2.0,-999.0,84,-99.99,,,-99.99,176.320007,,2013-08-29 13:00:00,
2013-08-29 09:42:00,70.0,65.0,-100.00,SE,135,2.0,-999.0,84,-99.99,,,-99.99,176.320007,,2013-08-29 13:42:00,
2013-08-29 09:52:00,70.0,65.0,-100.00,SE,135,2.0,-999.0,84,-99.99,,,-99.99,176.320007,,2013-08-29 13:52:00,
2013-08-29 10:00:00,73.0,66.0,-100.00,ESE,112,3.0,-999.0,78,-99.99,,,-99.99,335.239990,,2013-08-29 14:00:00,
2013-08-29 10:42:00,73.0,66.0,-100.00,ESE,112,3.0,-999.0,78,-99.99,,,-99.99,335.239990,,2013-08-29 14:42:00,
2013-08-29 10:52:00,73.0,66.0,-100.00,ESE,112,3.0,-999.0,78,-99.99,,,-99.99,335.239990,,2013-08-29 14:52:00,
2013-08-29 11:00:00,76.0,67.0,-100.00,ESE,112,4.0,-999.0,72,-99.99,,,-99.99,446.600006,,2013-08-29 15:00:00,
2013-08-29 11:43:00,76.0,67.0,-100.00,ESE,112,4.0,-999.0,72,-99.99,,,-99.99,446.600006,,2013-08-29 15:43:00,
2013-08-29 11:53:00,76.0,67.0,-100.00,ESE,112,4.0,-999.0,72,-99.99,,,-99.99,446.600006,,2013-08-29 15:53:00,
2013-08-29 12:00:00,79.0,66.0,-100.00,ESE,112,3.0,-999.0,64,-99.99,,,-99.99,615.960022,,2013-08-29 16:00:00,
2013-08-29 12:43:00,79.0,66.0,-100.00,ESE,112,3.0,-999.0,64,-99.99,,,-99.99,615.960022,,2013-08-29 16:43:00,
2013-08-29 12:54:00,79.0,66.0,-100.00,ESE,112,3.0,-999.0,64,-99.99,,,-99.99,615.960022,,2013-08-29 16:54:00,
2013-08-29 13:00:00,81.0,64.0,-100.00,SE,135,3.0,-999.0,55,-99.99,,,-99.99,702.960022,,2013-08-29 17:00:00,
2013-08-29 13:44:00,81.0,64.0,-100.00,SE,135,3.0,-999.0,55,-99.99,,,-99.99,702.960022,,2013-08-29 17:44:00,
2013-08-29 13:53:00,81.0,64.0,-100.00,SE,135,3.0,-999.0,55,-99.99,,,-99.99,702.960022,,2013-08-29 17:53:00,
2013-08-29 14:00:00,83.0,62.0,-100.00,ESE,112,3.0,-999.0,48,-99.99,,,-99.99,741.239990,,2013-08-29 18:00:00,
2013-08-29 14:42:00,83.0,62.0,-100.00,ESE,112,3.0,-999.0,48,-99.99,,,-99.99,741.239990,,2013-08-29 18:42:00,
2013-08-29 14:52:00,83.0,62.0,-100.00,ESE,112,3.0,-999.0,48,-99.99,,,-99.99,741.239990,,2013-08-29 18:52:00,
2013-08-29 15:00:00,85.0,61.0,-100.00,SSE,157,2.0,-999.0,44,-99.99,,,-99.99,720.359985,,2013-08-29 19:00:00,
2013-08-29 15:42:00,85.0,61.0,-100.00,SSE,157,2.0,-999.0,44,-99.99,,,-99.99,720.359985,,2013-08-29 19:42:00,
2013-08-29 15:53:00,85.0,61.0,-100.00,SSE,157,2.0,-999.0,44,-99.99,,,-99.99,720.359985,,2013-08-29 19:53:00,
2013-08-29 16:00:00,85.0,61.0,-100.00,ESE,112,3.0,-999.0,43,-99.99,,,-99.99,656.559998,,2013-08-29 20:00:00,
2013-08-29 16:42:00,85.0,61.0,-100.00,ESE,112,3.0,-999.0,43,-99.99,,,-99.99,656.559998,,2013-08-29 20:42:00,
2013-08-29 16:52:00,85.0,61.0,-100.00,ESE,112,3.0,-999.0,43,-99.99,,,-99.99,656.559998,,2013-08-29 20:52:00,
2013-08-29 17:00:00,86.0,62.0,-100.00,ESE,112,3.0,-999.0,45,-99.99,,,-99.99,547.520020,,2013-08-29 21:00:00,
2013-08-29 17:44:00,86.0,62.0,-100.00,ESE,112,3.0,-999.0,45,-99.99,,,-99.99,547.520020,,2013-08-29 21:44:00,
2013-08-29 17:54:00,86.0,62.0,-100.00,ESE,112,3.0,-999.0,45,-99.99,,,-99.99,547.520020,,2013-08-29 21:54:00,
2013-08-29 18:00:00,85.0,61.0,-100.00,ESE,112,4.0,-999.0,45,-99.99,,,-99.99,407.160004,,2013-08-29 22:00:00,
2013-08-29 18:43:00,85.0,61.0,-100.00,ESE,112,4.0,-999.0,45,-99.99,,,-99.99,407.160004,,2013-08-29 22:43:00,
2013-08-29 18:53:00,85.0,61.0,-100.00,ESE,112,4.0,-999.0,45,-99.99,,,-99.99,407.160004,,2013-08-29 22:53:00,
2013-08-29 19:00:00,84.0,62.0,-100.00,ESE,112,4.0,-999.0,47,-99.99,,,-99.99,245.919998,,2013-08-29 23:00:00,
2013-08-29 19:43:00,84.0,62.0,-100.00,ESE,112,4.0,-999.0,47,-99.99,,,-99.99,245.919998,,2013-08-29 23:43:00,
2013-08-29 19:53:00,84.0,62.0,-100.00,ESE,112,4.0,-999.0,47,-99.99,,,-99.99,245.919998,,2013-08-29 23:53:00,
2013-08-29 20:00:00,82.0,64.0,-100.00,East,90,3.0,-999.0,54,-99.99,,,-99.99,88.160004,,2013-08-30 00:00:00,
2013-08-29 20:42:00,82.0,64.0,-100.00,East,90,3.0,-999.0,54,-99.99,,,-99.99,88.160004,,2013-08-30 00:42:00,
2013-08-29 20:52:00,82.0,64.0,-100.00,East,90,3.0,-999.0,54,-99.99,,,-99.99,88.160004,,2013-08-30 00:52:00,
2013-08-29 21:00:00,77.0,65.0,-100.00,SSE,157,2.0,-999.0,66,-99.99,,,-99.99,3.480000,,2013-08-30 01:00:00,
2013-08-29 21:42:00,77.0,65.0,-100.00,SSE,157,2.0,-999.0,66,-99.99,,,-99.99,3.480000,,2013-08-30 01:42:00,
2013-08-29 21:52:00,77.0,65.0,-100.00,SSE,157,2.0,-999.0,66,-99.99,,,-99.99,3.480000,,2013-08-30 01:52:00,
2013-08-29 22:00:00,71.0,66.0,-100.00,WSW,247,1.0,-999.0,82,-99.99,,,-99.99,0.000000,,2013-08-30 02:00:00,
2013-08-29 22:42:00,71.0,66.0,-100.00,WSW,247,1.0,-999.0,82,-99.99,,,-99.99,0.000000,,2013-08-30 02:42:00,
2013-08-29 22:52:00,71.0,66.0,-100.00,WSW,247,1.0,-999.0,82,-99.99,,,-99.99,0.000000,,2013-08-30 02:52:00,
2013-08-29 23:00:00,70.0,65.0,-100.00,South,180,1.0,-999.0,85,-99.99,,,-99.99,0.000000,,2013-08-30 03:00:00,
2013-08-29 23:43:00,70.0,65.0,-100.00,South,180,1.0,-999.0,85,-99.99,,,-99.99,0.000000,,2013-08-30 03:43:00,
2013-08-29 23:55:00,70.0,65.0,-100.00,South,180,1.0,-999.0,85,-99.99,,,-99.99,0.000000,,2013-08-30 03:55:00,